sensor_id;sensor_type;location;lat;lon;timestamp;temperature;humidity
70986;DHT22;58645;43.068;25.610;2023-03-01T00:01:16;6.00;99.90
70986;DHT22;58645;43.068;25.610;2023-03-01T00:03:42;6.00;99.90
70986;DHT22;58645;43.068;25.610;2023-03-01T00:06:08;6.00;99.90
70986;DHT22;58645;43.068;25.610;2023-03-01T00:08:35;6.00;99.90
70986;DHT22;58645;43.068;25.610;2023-03-01T00:11:14;6.00;99.90
70986;DHT22;58645;43.068;25.610;2023-03-01T00:13:41;6.00;99.90
70986;DHT22;58645;43.068;25.610;2023-03-01T00:16:08;6.00;99.90
70986;DHT22;58645;43.068;25.610;2023-03-01T00:18:35;6.00;99.90
70986;DHT22;58645;43.068;25.610;2023-03-01T00:21:02;6.00;99.90
70986;DHT22;58645;43.068;25.610;2023-03-01T00:23:28;6.00;99.90
70986;DHT22;58645;43.068;25.610;2023-03-01T00:25:54;6.00;99.90
70986;DHT22;58645;43.068;25.610;2023-03-01T00:28:20;6.00;99.90
70986;DHT22;58645;43.068;25.610;2023-03-01T00:30:46;6.00;99.90
70986;DHT22;58645;43.068;25.610;2023-03-01T00:33:12;6.00;99.90
70986;DHT22;58645;43.068;25.610;2023-03-01T00:35:39;6.00;99.90
70986;DHT22;58645;43.068;25.610;2023-03-01T00:38:04;6.10;99.90
70986;DHT22;58645;43.068;25.610;2023-03-01T00:40:33;6.10;99.90
70986;DHT22;58645;43.068;25.610;2023-03-01T00:42:59;6.10;99.90
70986;DHT22;58645;43.068;25.610;2023-03-01T00:45:26;6.10;99.90
70986;DHT22;58645;43.068;25.610;2023-03-01T00:47:52;6.10;99.90
70986;DHT22;58645;43.068;25.610;2023-03-01T00:50:18;6.10;99.90
70986;DHT22;58645;43.068;25.610;2023-03-01T00:52:44;6.10;99.90
70986;DHT22;58645;43.068;25.610;2023-03-01T00:55:10;6.10;99.90
70986;DHT22;58645;43.068;25.610;2023-03-01T00:57:36;6.10;99.90
70986;DHT22;58645;43.068;25.610;2023-03-01T01:00:05;6.10;99.90
70986;DHT22;58645;43.068;25.610;2023-03-01T01:02:33;6.20;99.90
70986;DHT22;58645;43.068;25.610;2023-03-01T01:04:59;6.20;99.90
70986;DHT22;58645;43.068;25.610;2023-03-01T01:07:25;6.10;99.90
70986;DHT22;58645;43.068;25.610;2023-03-01T01:09:51;6.10;99.90
70986;DHT22;58645;43.068;25.610;2023-03-01T01:12:16;6.10;99.90
70986;DHT22;58645;43.068;25.610;2023-03-01T01:14:42;6.10;99.90
70986;DHT22;58645;43.068;25.610;2023-03-01T01:17:08;6.10;99.90
70986;DHT22;58645;43.068;25.610;2023-03-01T01:19:34;6.10;99.90
70986;DHT22;58645;43.068;25.610;2023-03-01T01:21:59;6.20;99.90
70986;DHT22;58645;43.068;25.610;2023-03-01T01:24:25;6.20;99.90
70986;DHT22;58645;43.068;25.610;2023-03-01T01:26:51;6.10;99.90
70986;DHT22;58645;43.068;25.610;2023-03-01T01:29:17;6.00;99.90
70986;DHT22;58645;43.068;25.610;2023-03-01T01:31:43;6.00;99.90
70986;DHT22;58645;43.068;25.610;2023-03-01T01:34:13;6.00;99.90
70986;DHT22;58645;43.068;25.610;2023-03-01T01:36:39;6.00;99.90
70986;DHT22;58645;43.068;25.610;2023-03-01T01:39:05;6.00;99.90
70986;DHT22;58645;43.068;25.610;2023-03-01T01:41:32;5.80;99.90
70986;DHT22;58645;43.068;25.610;2023-03-01T01:44:19;5.40;99.90
70986;DHT22;58645;43.068;25.610;2023-03-01T01:49:47;5.70;99.90
70986;DHT22;58645;43.068;25.610;2023-03-01T01:52:21;5.70;99.90
70986;DHT22;58645;43.068;25.610;2023-03-01T01:57:39;5.70;99.90
70986;DHT22;58645;43.068;25.610;2023-03-01T02:00:09;5.70;99.90
70986;DHT22;58645;43.068;25.610;2023-03-01T02:02:36;5.70;99.90
70986;DHT22;58645;43.068;25.610;2023-03-01T02:05:20;5.70;99.90
70986;DHT22;58645;43.068;25.610;2023-03-01T02:07:49;5.70;99.90
70986;DHT22;58645;43.068;25.610;2023-03-01T02:10:16;5.70;99.90
70986;DHT22;58645;43.068;25.610;2023-03-01T02:12:42;5.70;99.90
70986;DHT22;58645;43.068;25.610;2023-03-01T02:15:08;5.70;99.90
70986;DHT22;58645;43.068;25.610;2023-03-01T02:17:34;5.70;99.90
70986;DHT22;58645;43.068;25.610;2023-03-01T02:20:59;5.70;99.90
70986;DHT22;58645;43.068;25.610;2023-03-01T02:23:04;5.60;99.90
70986;DHT22;58645;43.068;25.610;2023-03-01T02:26:06;5.70;99.90
70986;DHT22;58645;43.068;25.610;2023-03-01T02:28:36;5.60;99.90
70986;DHT22;58645;43.068;25.610;2023-03-01T02:31:05;5.70;99.90
70986;DHT22;58645;43.068;25.610;2023-03-01T02:33:50;5.70;99.90
70986;DHT22;58645;43.068;25.610;2023-03-01T02:36:20;5.70;99.90
70986;DHT22;58645;43.068;25.610;2023-03-01T02:38:48;5.80;99.90
70986;DHT22;58645;43.068;25.610;2023-03-01T02:41:16;5.80;99.90
70986;DHT22;58645;43.068;25.610;2023-03-01T02:43:43;5.70;99.90
70986;DHT22;58645;43.068;25.610;2023-03-01T02:48:45;5.70;99.90
70986;DHT22;58645;43.068;25.610;2023-03-01T02:51:23;5.70;99.90
70986;DHT22;58645;43.068;25.610;2023-03-01T02:56:33;5.70;99.90
70986;DHT22;58645;43.068;25.610;2023-03-01T02:58:59;5.70;99.90
70986;DHT22;58645;43.068;25.610;2023-03-01T03:01:26;5.60;99.90
70986;DHT22;58645;43.068;25.610;2023-03-01T03:04:09;5.70;99.90
70986;DHT22;58645;43.068;25.610;2023-03-01T03:06:35;5.70;99.90
70986;DHT22;58645;43.068;25.610;2023-03-01T03:09:02;5.60;99.90
70986;DHT22;58645;43.068;25.610;2023-03-01T03:11:28;5.60;99.90
70986;DHT22;58645;43.068;25.610;2023-03-01T03:13:55;5.70;99.90
70986;DHT22;58645;43.068;25.610;2023-03-01T03:16:21;5.60;99.90
70986;DHT22;58645;43.068;25.610;2023-03-01T03:18:48;5.70;99.90
70986;DHT22;58645;43.068;25.610;2023-03-01T03:21:15;5.70;99.90
70986;DHT22;58645;43.068;25.610;2023-03-01T03:23:42;5.70;99.90
70986;DHT22;58645;43.068;25.610;2023-03-01T03:26:07;5.80;99.90
70986;DHT22;58645;43.068;25.610;2023-03-01T03:28:34;5.80;99.90
70986;DHT22;58645;43.068;25.610;2023-03-01T03:31:00;5.80;99.90
70986;DHT22;58645;43.068;25.610;2023-03-01T03:33:32;5.80;99.90
70986;DHT22;58645;43.068;25.610;2023-03-01T03:35:58;5.80;99.90
70986;DHT22;58645;43.068;25.610;2023-03-01T03:38:24;5.80;99.90
70986;DHT22;58645;43.068;25.610;2023-03-01T03:41:01;5.80;99.90
70986;DHT22;58645;43.068;25.610;2023-03-01T03:43:28;5.90;99.90
70986;DHT22;58645;43.068;25.610;2023-03-01T03:45:54;5.90;99.90
70986;DHT22;58645;43.068;25.610;2023-03-01T03:48:23;5.90;99.90
70986;DHT22;58645;43.068;25.610;2023-03-01T03:50:51;5.80;99.90
70986;DHT22;58645;43.068;25.610;2023-03-01T03:53:18;5.80;99.90
70986;DHT22;58645;43.068;25.610;2023-03-01T03:55:44;5.90;99.90
70986;DHT22;58645;43.068;25.610;2023-03-01T04:00:56;5.90;99.90
70986;DHT22;58645;43.068;25.610;2023-03-01T04:03:24;5.90;99.90
70986;DHT22;58645;43.068;25.610;2023-03-01T04:05:51;5.90;99.90
70986;DHT22;58645;43.068;25.610;2023-03-01T04:08:22;5.90;99.90
70986;DHT22;58645;43.068;25.610;2023-03-01T04:10:52;6.00;99.90
70986;DHT22;58645;43.068;25.610;2023-03-01T04:13:22;5.90;99.90
70986;DHT22;58645;43.068;25.610;2023-03-01T04:15:49;6.00;99.90
70986;DHT22;58645;43.068;25.610;2023-03-01T04:18:17;6.00;99.90
70986;DHT22;58645;43.068;25.610;2023-03-01T04:20:43;6.00;99.90
70986;DHT22;58645;43.068;25.610;2023-03-01T04:23:13;6.00;99.90
70986;DHT22;58645;43.068;25.610;2023-03-01T04:25:55;5.90;99.90
70986;DHT22;58645;43.068;25.610;2023-03-01T04:28:26;5.90;99.90
70986;DHT22;58645;43.068;25.610;2023-03-01T04:30:54;6.00;99.90
70986;DHT22;58645;43.068;25.610;2023-03-01T04:33:20;6.00;99.90
70986;DHT22;58645;43.068;25.610;2023-03-01T04:35:47;6.00;99.90
70986;DHT22;58645;43.068;25.610;2023-03-01T04:38:16;6.00;99.90
70986;DHT22;58645;43.068;25.610;2023-03-01T04:40:42;6.10;99.90
70986;DHT22;58645;43.068;25.610;2023-03-01T04:43:09;6.10;99.90
70986;DHT22;58645;43.068;25.610;2023-03-01T04:45:35;6.10;99.90
70986;DHT22;58645;43.068;25.610;2023-03-01T04:48:02;6.00;99.90
70986;DHT22;58645;43.068;25.610;2023-03-01T04:50:30;6.10;99.90
70986;DHT22;58645;43.068;25.610;2023-03-01T04:52:56;6.00;99.90
70986;DHT22;58645;43.068;25.610;2023-03-01T04:55:28;6.00;99.90
70986;DHT22;58645;43.068;25.610;2023-03-01T04:57:55;6.00;99.90
70986;DHT22;58645;43.068;25.610;2023-03-01T05:00:22;6.00;99.90
70986;DHT22;58645;43.068;25.610;2023-03-01T05:05:20;5.90;99.90
70986;DHT22;58645;43.068;25.610;2023-03-01T05:07:47;5.90;99.90
70986;DHT22;58645;43.068;25.610;2023-03-01T05:10:12;5.90;99.90
70986;DHT22;58645;43.068;25.610;2023-03-01T05:12:38;5.90;99.90
70986;DHT22;58645;43.068;25.610;2023-03-01T05:15:05;5.90;99.90
70986;DHT22;58645;43.068;25.610;2023-03-01T05:17:33;5.90;99.90
70986;DHT22;58645;43.068;25.610;2023-03-01T05:20:00;5.90;99.90
70986;DHT22;58645;43.068;25.610;2023-03-01T05:22:26;5.90;99.90
70986;DHT22;58645;43.068;25.610;2023-03-01T05:24:52;5.90;99.90
70986;DHT22;58645;43.068;25.610;2023-03-01T05:27:19;5.90;99.90
70986;DHT22;58645;43.068;25.610;2023-03-01T05:29:47;5.90;99.90
70986;DHT22;58645;43.068;25.610;2023-03-01T05:32:13;5.90;99.90
70986;DHT22;58645;43.068;25.610;2023-03-01T05:34:41;5.90;99.90
70986;DHT22;58645;43.068;25.610;2023-03-01T05:37:07;5.90;99.90
70986;DHT22;58645;43.068;25.610;2023-03-01T05:39:34;5.90;99.90
70986;DHT22;58645;43.068;25.610;2023-03-01T05:42:01;5.90;99.90
70986;DHT22;58645;43.068;25.610;2023-03-01T05:44:28;5.90;99.90
70986;DHT22;58645;43.068;25.610;2023-03-01T05:46:54;5.90;99.90
70986;DHT22;58645;43.068;25.610;2023-03-01T05:49:21;5.90;99.90
70986;DHT22;58645;43.068;25.610;2023-03-01T05:51:51;5.90;99.90
70986;DHT22;58645;43.068;25.610;2023-03-01T05:54:18;5.80;99.90
70986;DHT22;58645;43.068;25.610;2023-03-01T05:56:44;5.80;99.90
70986;DHT22;58645;43.068;25.610;2023-03-01T05:59:11;5.90;99.90
70986;DHT22;58645;43.068;25.610;2023-03-01T06:01:37;5.90;99.90
70986;DHT22;58645;43.068;25.610;2023-03-01T06:04:04;5.90;99.90
70986;DHT22;58645;43.068;25.610;2023-03-01T06:06:33;5.90;99.90
70986;DHT22;58645;43.068;25.610;2023-03-01T06:08:59;5.90;99.90
70986;DHT22;58645;43.068;25.610;2023-03-01T06:11:25;5.90;99.90
70986;DHT22;58645;43.068;25.610;2023-03-01T06:13:53;5.90;99.90
70986;DHT22;58645;43.068;25.610;2023-03-01T06:16:20;6.00;99.90
70986;DHT22;58645;43.068;25.610;2023-03-01T06:18:46;6.00;99.90
70986;DHT22;58645;43.068;25.610;2023-03-01T06:21:12;6.00;99.90
70986;DHT22;58645;43.068;25.610;2023-03-01T06:23:38;6.10;99.90
70986;DHT22;58645;43.068;25.610;2023-03-01T06:26:08;6.10;99.90
70986;DHT22;58645;43.068;25.610;2023-03-01T06:28:34;6.10;99.90
70986;DHT22;58645;43.068;25.610;2023-03-01T06:31:01;6.20;99.90
70986;DHT22;58645;43.068;25.610;2023-03-01T06:33:26;6.10;99.90
70986;DHT22;58645;43.068;25.610;2023-03-01T06:35:54;6.10;99.90
70986;DHT22;58645;43.068;25.610;2023-03-01T06:38:22;6.10;99.90
70986;DHT22;58645;43.068;25.610;2023-03-01T06:40:56;6.10;99.90
70986;DHT22;58645;43.068;25.610;2023-03-01T06:46:24;5.90;99.90
70986;DHT22;58645;43.068;25.610;2023-03-01T06:52:12;6.10;99.90
70986;DHT22;58645;43.068;25.610;2023-03-01T06:54:38;6.20;99.90
70986;DHT22;58645;43.068;25.610;2023-03-01T06:57:04;6.20;99.90
70986;DHT22;58645;43.068;25.610;2023-03-01T06:59:30;6.20;99.90
70986;DHT22;58645;43.068;25.610;2023-03-01T07:01:56;6.20;99.90
70986;DHT22;58645;43.068;25.610;2023-03-01T07:04:22;6.20;99.90
70986;DHT22;58645;43.068;25.610;2023-03-01T07:06:48;6.20;99.90
70986;DHT22;58645;43.068;25.610;2023-03-01T07:09:24;6.10;99.90
70986;DHT22;58645;43.068;25.610;2023-03-01T07:11:50;6.10;99.90
70986;DHT22;58645;43.068;25.610;2023-03-01T07:14:16;6.20;99.90
70986;DHT22;58645;43.068;25.610;2023-03-01T07:16:42;6.20;99.90
70986;DHT22;58645;43.068;25.610;2023-03-01T07:19:08;6.20;99.90
70986;DHT22;58645;43.068;25.610;2023-03-01T07:21:34;6.20;99.90
70986;DHT22;58645;43.068;25.610;2023-03-01T07:24:00;6.30;99.90
70986;DHT22;58645;43.068;25.610;2023-03-01T07:26:26;6.30;99.90
70986;DHT22;58645;43.068;25.610;2023-03-01T07:28:52;6.40;99.90
70986;DHT22;58645;43.068;25.610;2023-03-01T07:31:18;6.40;99.90
70986;DHT22;58645;43.068;25.610;2023-03-01T07:33:44;6.40;99.90
70986;DHT22;58645;43.068;25.610;2023-03-01T07:36:12;6.50;99.90
70986;DHT22;58645;43.068;25.610;2023-03-01T07:38:39;6.60;99.90
70986;DHT22;58645;43.068;25.610;2023-03-01T07:41:05;6.60;99.90
70986;DHT22;58645;43.068;25.610;2023-03-01T07:43:37;6.60;99.90
70986;DHT22;58645;43.068;25.610;2023-03-01T07:46:16;6.60;99.90
70986;DHT22;58645;43.068;25.610;2023-03-01T07:49:03;6.70;99.90
70986;DHT22;58645;43.068;25.610;2023-03-01T07:51:31;6.70;99.90
70986;DHT22;58645;43.068;25.610;2023-03-01T07:53:56;6.70;99.90
70986;DHT22;58645;43.068;25.610;2023-03-01T07:56:25;6.70;99.90
70986;DHT22;58645;43.068;25.610;2023-03-01T07:58:51;6.80;99.90
70986;DHT22;58645;43.068;25.610;2023-03-01T08:01:21;6.80;99.90
70986;DHT22;58645;43.068;25.610;2023-03-01T08:03:47;6.80;99.90
70986;DHT22;58645;43.068;25.610;2023-03-01T08:06:15;6.90;99.90
70986;DHT22;58645;43.068;25.610;2023-03-01T08:08:41;6.90;99.90
70986;DHT22;58645;43.068;25.610;2023-03-01T08:11:09;6.90;99.90
70986;DHT22;58645;43.068;25.610;2023-03-01T08:13:38;7.10;99.90
70986;DHT22;58645;43.068;25.610;2023-03-01T08:16:06;7.10;99.90
70986;DHT22;58645;43.068;25.610;2023-03-01T08:18:32;7.00;99.90
70986;DHT22;58645;43.068;25.610;2023-03-01T08:21:05;7.00;99.90
70986;DHT22;58645;43.068;25.610;2023-03-01T08:23:32;7.00;99.90
70986;DHT22;58645;43.068;25.610;2023-03-01T08:26:06;7.00;99.90
70986;DHT22;58645;43.068;25.610;2023-03-01T08:28:32;7.00;99.90
70986;DHT22;58645;43.068;25.610;2023-03-01T08:30:58;7.00;99.90
70986;DHT22;58645;43.068;25.610;2023-03-01T08:33:28;6.90;99.90
70986;DHT22;58645;43.068;25.610;2023-03-01T08:36:03;6.90;99.90
70986;DHT22;58645;43.068;25.610;2023-03-01T08:38:29;7.00;99.90
70986;DHT22;58645;43.068;25.610;2023-03-01T08:40:55;6.90;99.90
70986;DHT22;58645;43.068;25.610;2023-03-01T08:43:24;7.00;99.90
70986;DHT22;58645;43.068;25.610;2023-03-01T08:45:50;7.10;99.90
70986;DHT22;58645;43.068;25.610;2023-03-01T08:48:22;7.10;99.90
70986;DHT22;58645;43.068;25.610;2023-03-01T08:50:48;7.20;99.90
70986;DHT22;58645;43.068;25.610;2023-03-01T08:53:14;7.20;99.90
70986;DHT22;58645;43.068;25.610;2023-03-01T08:55:40;7.20;99.90
70986;DHT22;58645;43.068;25.610;2023-03-01T08:58:06;7.30;99.90
70986;DHT22;58645;43.068;25.610;2023-03-01T09:00:39;7.30;99.90
70986;DHT22;58645;43.068;25.610;2023-03-01T09:03:06;7.20;99.90
70986;DHT22;58645;43.068;25.610;2023-03-01T09:05:32;7.20;99.90
70986;DHT22;58645;43.068;25.610;2023-03-01T09:07:58;7.20;99.90
70986;DHT22;58645;43.068;25.610;2023-03-01T09:10:24;7.20;99.90
70986;DHT22;58645;43.068;25.610;2023-03-01T09:12:51;7.00;99.90
70986;DHT22;58645;43.068;25.610;2023-03-01T09:15:24;7.10;99.90
70986;DHT22;58645;43.068;25.610;2023-03-01T09:17:50;7.10;99.90
70986;DHT22;58645;43.068;25.610;2023-03-01T09:20:17;7.00;99.90
70986;DHT22;58645;43.068;25.610;2023-03-01T09:22:43;6.90;99.90
70986;DHT22;58645;43.068;25.610;2023-03-01T09:25:09;6.90;99.90
70986;DHT22;58645;43.068;25.610;2023-03-01T09:27:35;6.90;99.90
70986;DHT22;58645;43.068;25.610;2023-03-01T09:30:02;6.90;99.90
70986;DHT22;58645;43.068;25.610;2023-03-01T09:32:30;6.90;99.90
70986;DHT22;58645;43.068;25.610;2023-03-01T09:34:56;7.00;99.90
70986;DHT22;58645;43.068;25.610;2023-03-01T09:37:31;7.00;99.90
70986;DHT22;58645;43.068;25.610;2023-03-01T09:39:57;7.00;99.90
70986;DHT22;58645;43.068;25.610;2023-03-01T09:42:24;7.00;99.90
70986;DHT22;58645;43.068;25.610;2023-03-01T09:44:56;7.00;99.90
70986;DHT22;58645;43.068;25.610;2023-03-01T09:47:34;7.10;99.90
70986;DHT22;58645;43.068;25.610;2023-03-01T09:50:22;7.10;99.90
70986;DHT22;58645;43.068;25.610;2023-03-01T09:53:31;7.10;99.90
70986;DHT22;58645;43.068;25.610;2023-03-01T09:59:03;7.20;99.90
70986;DHT22;58645;43.068;25.610;2023-03-01T10:01:36;7.20;99.90
70986;DHT22;58645;43.068;25.610;2023-03-01T10:09:39;7.40;99.90
70986;DHT22;58645;43.068;25.610;2023-03-01T10:12:10;7.50;99.90
70986;DHT22;58645;43.068;25.610;2023-03-01T10:14:43;7.50;99.90
70986;DHT22;58645;43.068;25.610;2023-03-01T10:17:26;7.60;99.90
70986;DHT22;58645;43.068;25.610;2023-03-01T10:19:53;7.60;99.90
70986;DHT22;58645;43.068;25.610;2023-03-01T10:22:26;7.70;99.90
70986;DHT22;58645;43.068;25.610;2023-03-01T10:24:56;7.60;99.90
70986;DHT22;58645;43.068;25.610;2023-03-01T10:27:25;7.60;99.90
70986;DHT22;58645;43.068;25.610;2023-03-01T10:30:19;7.50;99.90
70986;DHT22;58645;43.068;25.610;2023-03-01T10:32:46;7.50;99.90
70986;DHT22;58645;43.068;25.610;2023-03-01T10:35:20;7.40;99.90
70986;DHT22;58645;43.068;25.610;2023-03-01T10:38:09;7.40;99.90
70986;DHT22;58645;43.068;25.610;2023-03-01T10:40:49;7.50;99.90
70986;DHT22;58645;43.068;25.610;2023-03-01T10:43:15;7.40;99.90
70986;DHT22;58645;43.068;25.610;2023-03-01T10:45:41;7.30;99.90
70986;DHT22;58645;43.068;25.610;2023-03-01T10:48:20;7.20;99.90
70986;DHT22;58645;43.068;25.610;2023-03-01T10:50:51;7.40;99.90
70986;DHT22;58645;43.068;25.610;2023-03-01T10:53:33;7.40;99.90
70986;DHT22;58645;43.068;25.610;2023-03-01T10:56:18;7.40;99.90
70986;DHT22;58645;43.068;25.610;2023-03-01T10:59:01;7.40;99.90
70986;DHT22;58645;43.068;25.610;2023-03-01T11:01:30;7.50;99.90
70986;DHT22;58645;43.068;25.610;2023-03-01T11:06:33;7.50;99.90
70986;DHT22;58645;43.068;25.610;2023-03-01T11:09:20;7.40;99.90
70986;DHT22;58645;43.068;25.610;2023-03-01T11:11:51;7.30;99.90
70986;DHT22;58645;43.068;25.610;2023-03-01T11:14:26;7.30;99.90
70986;DHT22;58645;43.068;25.610;2023-03-01T11:19:41;7.30;99.90
70986;DHT22;58645;43.068;25.610;2023-03-01T11:24:44;7.20;99.90
70986;DHT22;58645;43.068;25.610;2023-03-01T11:27:25;7.20;99.90
70986;DHT22;58645;43.068;25.610;2023-03-01T11:30:21;7.10;99.90
70986;DHT22;58645;43.068;25.610;2023-03-01T11:35:55;7.20;99.90
70986;DHT22;58645;43.068;25.610;2023-03-01T11:38:28;7.30;99.90
70986;DHT22;58645;43.068;25.610;2023-03-01T11:41:14;7.30;99.90
70986;DHT22;58645;43.068;25.610;2023-03-01T11:43:55;7.30;99.90
70986;DHT22;58645;43.068;25.610;2023-03-01T11:57:33;7.30;99.90
70986;DHT22;58645;43.068;25.610;2023-03-01T12:00:23;7.30;99.90
70986;DHT22;58645;43.068;25.610;2023-03-01T12:05:59;7.00;99.90
70986;DHT22;58645;43.068;25.610;2023-03-01T12:08:51;7.10;99.90
70986;DHT22;58645;43.068;25.610;2023-03-01T12:11:47;7.00;99.90
70986;DHT22;58645;43.068;25.610;2023-03-01T12:28:45;7.10;99.90
70986;DHT22;58645;43.068;25.610;2023-03-01T12:39:51;7.20;99.90
70986;DHT22;58645;43.068;25.610;2023-03-01T12:45:20;7.30;99.90
70986;DHT22;58645;43.068;25.610;2023-03-01T12:50:53;7.20;99.90
70986;DHT22;58645;43.068;25.610;2023-03-01T12:55:50;7.20;99.90
70986;DHT22;58645;43.068;25.610;2023-03-01T13:00:59;7.10;99.90
70986;DHT22;58645;43.068;25.610;2023-03-01T13:04:15;7.10;99.90
70986;DHT22;58645;43.068;25.610;2023-03-01T13:09:23;7.20;99.90
70986;DHT22;58645;43.068;25.610;2023-03-01T13:11:51;7.20;99.90
70986;DHT22;58645;43.068;25.610;2023-03-01T13:16:46;7.20;99.90
70986;DHT22;58645;43.068;25.610;2023-03-01T13:19:25;7.20;99.90
70986;DHT22;58645;43.068;25.610;2023-03-01T13:21:53;7.20;99.90
70986;DHT22;58645;43.068;25.610;2023-03-01T13:24:38;7.10;99.90
70986;DHT22;58645;43.068;25.610;2023-03-01T13:29:49;7.00;99.90
70986;DHT22;58645;43.068;25.610;2023-03-01T13:32:21;7.10;99.90
70986;DHT22;58645;43.068;25.610;2023-03-01T13:34:52;7.10;99.90
70986;DHT22;58645;43.068;25.610;2023-03-01T13:37:26;7.10;99.90
70986;DHT22;58645;43.068;25.610;2023-03-01T13:39:55;7.10;99.90
70986;DHT22;58645;43.068;25.610;2023-03-01T13:42:36;7.20;99.90
70986;DHT22;58645;43.068;25.610;2023-03-01T13:45:18;7.20;99.90
70986;DHT22;58645;43.068;25.610;2023-03-01T13:47:46;7.20;99.90
70986;DHT22;58645;43.068;25.610;2023-03-01T13:50:24;7.20;99.90
70986;DHT22;58645;43.068;25.610;2023-03-01T13:52:54;7.30;99.90
70986;DHT22;58645;43.068;25.610;2023-03-01T13:55:36;7.30;99.90
70986;DHT22;58645;43.068;25.610;2023-03-01T13:58:13;7.30;99.90
70986;DHT22;58645;43.068;25.610;2023-03-01T14:00:40;7.30;99.90
70986;DHT22;58645;43.068;25.610;2023-03-01T14:05:38;7.30;99.90
70986;DHT22;58645;43.068;25.610;2023-03-01T14:08:05;7.30;99.90
70986;DHT22;58645;43.068;25.610;2023-03-01T14:14:12;7.30;99.90
70986;DHT22;58645;43.068;25.610;2023-03-01T14:19:16;7.30;99.90
70986;DHT22;58645;43.068;25.610;2023-03-01T14:21:43;7.30;99.90
70986;DHT22;58645;43.068;25.610;2023-03-01T14:24:18;7.30;99.90
70986;DHT22;58645;43.068;25.610;2023-03-01T14:26:45;7.30;99.90
70986;DHT22;58645;43.068;25.610;2023-03-01T14:29:35;7.30;99.90
70986;DHT22;58645;43.068;25.610;2023-03-01T14:32:17;7.30;99.90
70986;DHT22;58645;43.068;25.610;2023-03-01T14:34:49;7.20;99.90
70986;DHT22;58645;43.068;25.610;2023-03-01T14:37:19;7.20;99.90
70986;DHT22;58645;43.068;25.610;2023-03-01T14:39:45;7.20;99.90
70986;DHT22;58645;43.068;25.610;2023-03-01T14:42:12;7.20;99.90
70986;DHT22;58645;43.068;25.610;2023-03-01T14:44:45;7.20;99.90
70986;DHT22;58645;43.068;25.610;2023-03-01T14:47:20;7.20;99.90
70986;DHT22;58645;43.068;25.610;2023-03-01T14:49:54;7.10;99.90
70986;DHT22;58645;43.068;25.610;2023-03-01T14:52:25;7.10;99.90
70986;DHT22;58645;43.068;25.610;2023-03-01T14:54:53;7.10;99.90
70986;DHT22;58645;43.068;25.610;2023-03-01T14:57:25;7.10;99.90
70986;DHT22;58645;43.068;25.610;2023-03-01T15:00:03;7.20;99.90
70986;DHT22;58645;43.068;25.610;2023-03-01T15:02:33;7.20;99.90
70986;DHT22;58645;43.068;25.610;2023-03-01T15:05:03;7.10;99.90
70986;DHT22;58645;43.068;25.610;2023-03-01T15:07:36;7.20;99.90
70986;DHT22;58645;43.068;25.610;2023-03-01T15:10:05;7.10;99.90
70986;DHT22;58645;43.068;25.610;2023-03-01T15:14:57;7.10;99.90
70986;DHT22;58645;43.068;25.610;2023-03-01T15:17:34;7.20;99.90
70986;DHT22;58645;43.068;25.610;2023-03-01T15:20:03;7.20;99.90
70986;DHT22;58645;43.068;25.610;2023-03-01T15:22:30;7.20;99.90
70986;DHT22;58645;43.068;25.610;2023-03-01T15:24:58;7.20;99.90
70986;DHT22;58645;43.068;25.610;2023-03-01T15:27:25;7.20;99.90
70986;DHT22;58645;43.068;25.610;2023-03-01T15:29:58;7.20;99.90
70986;DHT22;58645;43.068;25.610;2023-03-01T15:34:52;7.30;99.90
70986;DHT22;58645;43.068;25.610;2023-03-01T15:40:17;7.30;99.90
70986;DHT22;58645;43.068;25.610;2023-03-01T15:42:43;7.30;99.90
70986;DHT22;58645;43.068;25.610;2023-03-01T15:47:51;7.30;99.90
70986;DHT22;58645;43.068;25.610;2023-03-01T15:50:26;7.30;99.90
70986;DHT22;58645;43.068;25.610;2023-03-01T15:52:53;7.30;99.90
70986;DHT22;58645;43.068;25.610;2023-03-01T15:55:25;7.20;99.90
70986;DHT22;58645;43.068;25.610;2023-03-01T15:58:18;7.10;99.90
70986;DHT22;58645;43.068;25.610;2023-03-01T16:00:45;7.10;99.90
70986;DHT22;58645;43.068;25.610;2023-03-01T16:03:14;7.10;99.90
70986;DHT22;58645;43.068;25.610;2023-03-01T16:05:47;7.10;99.90
70986;DHT22;58645;43.068;25.610;2023-03-01T16:08:13;7.00;99.90
70986;DHT22;58645;43.068;25.610;2023-03-01T16:10:40;7.00;99.90
70986;DHT22;58645;43.068;25.610;2023-03-01T16:13:10;7.00;99.90
70986;DHT22;58645;43.068;25.610;2023-03-01T16:15:36;7.00;99.90
70986;DHT22;58645;43.068;25.610;2023-03-01T16:18:03;7.00;99.90
70986;DHT22;58645;43.068;25.610;2023-03-01T16:20:31;7.00;99.90
70986;DHT22;58645;43.068;25.610;2023-03-01T16:23:02;6.90;99.90
70986;DHT22;58645;43.068;25.610;2023-03-01T16:25:28;6.90;99.90
70986;DHT22;58645;43.068;25.610;2023-03-01T16:27:54;6.90;99.90
70986;DHT22;58645;43.068;25.610;2023-03-01T16:30:22;6.90;99.90
70986;DHT22;58645;43.068;25.610;2023-03-01T16:32:48;6.90;99.90
70986;DHT22;58645;43.068;25.610;2023-03-01T16:35:17;6.80;99.90
70986;DHT22;58645;43.068;25.610;2023-03-01T16:37:43;6.80;99.90
70986;DHT22;58645;43.068;25.610;2023-03-01T16:42:47;6.80;99.90
70986;DHT22;58645;43.068;25.610;2023-03-01T16:45:13;6.90;99.90
70986;DHT22;58645;43.068;25.610;2023-03-01T16:47:39;6.90;99.90
70986;DHT22;58645;43.068;25.610;2023-03-01T16:50:05;6.90;99.90
70986;DHT22;58645;43.068;25.610;2023-03-01T16:52:31;6.90;99.90
70986;DHT22;58645;43.068;25.610;2023-03-01T16:54:57;6.90;99.90
70986;DHT22;58645;43.068;25.610;2023-03-01T16:57:22;6.80;99.90
70986;DHT22;58645;43.068;25.610;2023-03-01T16:59:51;6.80;99.90
70986;DHT22;58645;43.068;25.610;2023-03-01T17:02:18;6.80;99.90
70986;DHT22;58645;43.068;25.610;2023-03-01T17:04:51;6.70;99.90
70986;DHT22;58645;43.068;25.610;2023-03-01T17:07:17;6.70;99.90
70986;DHT22;58645;43.068;25.610;2023-03-01T17:09:42;6.80;99.90
70986;DHT22;58645;43.068;25.610;2023-03-01T17:12:08;6.80;99.90
70986;DHT22;58645;43.068;25.610;2023-03-01T17:14:34;6.80;99.90
70986;DHT22;58645;43.068;25.610;2023-03-01T17:17:00;6.90;99.90
70986;DHT22;58645;43.068;25.610;2023-03-01T17:19:28;6.90;99.90
70986;DHT22;58645;43.068;25.610;2023-03-01T17:21:54;6.90;99.90
70986;DHT22;58645;43.068;25.610;2023-03-01T17:24:19;6.90;99.90
70986;DHT22;58645;43.068;25.610;2023-03-01T17:26:45;6.80;99.90
70986;DHT22;58645;43.068;25.610;2023-03-01T17:29:11;6.80;99.90
70986;DHT22;58645;43.068;25.610;2023-03-01T17:31:38;6.80;99.90
70986;DHT22;58645;43.068;25.610;2023-03-01T17:34:04;6.70;99.90
70986;DHT22;58645;43.068;25.610;2023-03-01T17:36:30;6.70;99.90
70986;DHT22;58645;43.068;25.610;2023-03-01T17:38:58;6.70;99.90
70986;DHT22;58645;43.068;25.610;2023-03-01T17:41:23;6.60;99.90
70986;DHT22;58645;43.068;25.610;2023-03-01T17:43:49;6.60;99.90
70986;DHT22;58645;43.068;25.610;2023-03-01T17:46:15;6.50;99.90